Maximo — WDD9731 — position and weather

sailwx.info

Track history (hours):
 
Tides and Currents Weather Stations Pressure Air Temp Water Temp Dewpoint Dewpoint Depression Visibility Wind Speed Wind Dir Waves Ship Positions

Maximo

Owner: OBERTO, STEPHEN J, SEATTLE, WA. More information available from US FCC via Universal Licensing System and Coast Guard Vessel Documentation Center.

Last reported at 2017-Dec-11 05:46 UTC. Time now 2017-Dec-13 22:34 UTC.
Position N 47°17' W 122°28'.

Length 21 m.

Type: Pleasure craft. MMSI: 367315610.

Date/timePositionNaut miles runAvg speedWind from/ knotsBaromVisibWave heightAir tempDewpointWater temp
2017-Dec-11 05:46N 47°17' W 122°28'0 0.5
2017-Dec-11 05:30N 47°17' W 122°28'2 1.2
2017-Dec-11 03:38N 47°19' W 122°30'2 9.2
2017-Dec-11 03:27N 47°17' W 122°28'5 0.8
2017-Dec-10 20:50N 47°22' W 122°24'2 7.0
2017-Dec-10 20:30N 47°24' W 122°22'4 8.2
2017-Dec-10 20:00N 47°28' W 122°25'4 7.8
2017-Dec-10 19:30N 47°32' W 122°25'5 8.1
2017-Dec-10 18:51N 47°37' W 122°24'1 2.7
2017-Dec-10 18:29N 47°38' W 122°23'0 0.0
2017-Dec-10 17:56N 47°38' W 122°23'0 0.0
2017-Dec-10 17:29N 47°38' W 122°23'0 0.0
2017-Dec-10 16:59N 47°38' W 122°23'0 0.0
2017-Dec-10 16:21N 47°38' W 122°23'0 0.0
2017-Dec-10 15:53N 47°38' W 122°23'0 0.0
2017-Dec-10 15:26N 47°38' W 122°23'0 0.0
2017-Dec-10 14:59N 47°38' W 122°23'0 0.0
2017-Dec-10 14:29N 47°38' W 122°23'0 0.0
2017-Dec-10 13:59N 47°38' W 122°23'0 0.0
2017-Dec-10 13:29N 47°38' W 122°23'0 0.0
2017-Dec-10 12:59N 47°38' W 122°23'0 0.0
2017-Dec-10 12:30N 47°38' W 122°23'0 0.0
2017-Dec-10 11:59N 47°38' W 122°23'0 0.0
2017-Dec-10 11:29N 47°38' W 122°23'0 0.0
2017-Dec-10 10:56N 47°38' W 122°23'0 0.0
2017-Dec-10 10:27N 47°38' W 122°23'0 0.0
2017-Dec-10 09:59N 47°38' W 122°23'0 0.0
2017-Dec-10 09:26N 47°38' W 122°23'0 0.0
2017-Dec-10 08:59N 47°38' W 122°23'0 0.0
2017-Dec-10 08:29N 47°38' W 122°23'0 0.0
2017-Dec-10 07:59N 47°38' W 122°23'0 0.0
2017-Dec-10 07:30N 47°38' W 122°23'0 0.0
2017-Dec-10 06:59N 47°38' W 122°23'0 0.0
2017-Dec-10 06:29N 47°38' W 122°23'0 0.2
2017-Dec-10 05:59N 47°38' W 122°24'4 3.2
2017-Dec-10 04:44N 47°34' W 122°25'2 4.4
2017-Dec-10 04:23N 47°32' W 122°24'1 2.6
2017-Dec-10 04:00N 47°33' W 122°25'4 3.7
2017-Dec-10 02:53N 47°37' W 122°21'2 4.6
2017-Dec-10 02:29N 47°38' W 122°23'0 0.1
2017-Dec-10 01:56N 47°38' W 122°24'0 0.0
2017-Dec-10 01:29N 47°38' W 122°24'2 4.7
2017-Dec-10 01:00N 47°35' W 122°23'0 0.8
2017-Dec-10 00:31N 47°35' W 122°22'2 0.8
2017-Dec-09 22:09N 47°37' W 122°23'1 3.6
2017-Dec-09 22:00N 47°38' W 122°23'0 0.4
2017-Dec-09 21:13N 47°38' W 122°24'0 0.0
2017-Dec-09 20:43N 47°38' W 122°24'0 0.4
2017-Dec-09 20:30N 47°38' W 122°24'0 0.0
2017-Dec-09 19:48N 47°38' W 122°24'0 0.0
2017-Dec-09 19:28N 47°38' W 122°24'0 0.0
2017-Dec-09 18:54N 47°38' W 122°24'0 0.0
2017-Dec-09 18:30N 47°38' W 122°24'0 0.0
2017-Dec-09 18:00N 47°38' W 122°24'0 0.0
2017-Dec-09 17:30N 47°38' W 122°24'0 0.0
2017-Dec-09 16:48N 47°38' W 122°24'0 0.0
2017-Dec-09 16:30N 47°38' W 122°24'0 0.0
2017-Dec-09 16:00N 47°38' W 122°24'0 0.0
2017-Dec-09 15:24N 47°38' W 122°24'0 0.0
2017-Dec-09 15:00N 47°38' W 122°24'0 0.0
2017-Dec-09 14:24N 47°38' W 122°24'0 0.0
2017-Dec-09 13:54N 47°38' W 122°24'0 0.0
2017-Dec-09 13:27N 47°38' W 122°24'0 0.0
2017-Dec-09 12:54N 47°38' W 122°24'0 0.0
2017-Dec-09 12:30N 47°38' W 122°24'0 0.0
2017-Dec-09 11:30N 47°38' W 122°24'0 0.0
2017-Dec-09 11:00N 47°38' W 122°24'0 0.0
2017-Dec-09 10:30N 47°38' W 122°24'0 0.0
2017-Dec-09 09:57N 47°38' W 122°24'0 0.0
2017-Dec-09 09:30N 47°38' W 122°24'0 0.0
2017-Dec-09 08:57N 47°38' W 122°24'0 0.0
2017-Dec-09 08:19N 47°38' W 122°24'0 0.0
2017-Dec-09 07:54N 47°38' W 122°24'0 0.0
2017-Dec-09 07:30N 47°38' W 122°24'0 0.0
2017-Dec-09 07:00N 47°38' W 122°24'0 0.2
2017-Dec-09 06:29N 47°38' W 122°24'0 0.3
2017-Dec-09 06:00N 47°38' W 122°23'1 2.4
2017-Dec-09 05:26N 47°37' W 122°22'4 8.4
2017-Dec-09 04:59N 47°35' W 122°27'4 3.6
2017-Dec-09 03:54N 47°33' W 122°32'4 8.0
2017-Dec-09 03:26N 47°35' W 122°27'3 7.7
2017-Dec-09 03:00N 47°37' W 122°23'0 0.6
2017-Dec-09 02:27N 47°38' W 122°24'0 0.0
2017-Dec-09 02:00N 47°38' W 122°24'0 0.0
2017-Dec-09 01:27N 47°38' W 122°24'0 0.2
2017-Dec-09 01:00N 47°38' W 122°24'0 0.0
2017-Dec-09 00:27N 47°38' W 122°24'0 0.0
2017-Dec-08 23:57N 47°38' W 122°24'0 0.0
2017-Dec-08 23:27N 47°38' W 122°24'0 0.0
2017-Dec-08 22:57N 47°38' W 122°24'0 0.0
2017-Dec-08 22:30N 47°38' W 122°24'0 0.0
2017-Dec-08 22:01N 47°38' W 122°24'0 0.0
2017-Dec-08 21:27N 47°38' W 122°24'0 0.0
2017-Dec-08 20:58N 47°38' W 122°24'0 1.0
2017-Dec-08 20:30N 47°38' W 122°24'3 6.1
2017-Dec-08 20:00N 47°41' W 122°25'2 3.7
2017-Dec-08 19:30N 47°40' W 122°23'0 0.6
2017-Dec-08 19:00N 47°39' W 122°23'0 0.0
2017-Dec-08 18:30N 47°39' W 122°23'0 0.0
2017-Dec-08 18:00N 47°39' W 122°23'0 0.0
2017-Dec-08 17:30N 47°39' W 122°23'0 0.0
2017-Dec-08 16:54N 47°39' W 122°23'0 0.0
2017-Dec-08 16:30N 47°39' W 122°23'0 0.0
2017-Dec-08 16:00N 47°39' W 122°23'0 0.0
2017-Dec-08 15:30N 47°39' W 122°23'0 0.0
2017-Dec-08 15:00N 47°39' W 122°23'0 0.0
2017-Dec-08 14:30N 47°39' W 122°23'0 0.0
2017-Dec-08 14:00N 47°39' W 122°23'0 0.0
2017-Dec-08 13:30N 47°39' W 122°23'0 0.0
2017-Dec-08 13:00N 47°39' W 122°23'0 0.0
2017-Dec-08 12:30N 47°39' W 122°23'0 0.0
2017-Dec-08 12:00N 47°39' W 122°23'0 0.0
2017-Dec-08 11:30N 47°39' W 122°23'0 0.0
2017-Dec-08 11:00N 47°39' W 122°23'0 0.0
2017-Dec-08 10:30N 47°39' W 122°23'0 0.0
2017-Dec-08 10:00N 47°39' W 122°23'0 0.0
2017-Dec-08 09:30N 47°39' W 122°23'0 0.0
2017-Dec-08 09:00N 47°39' W 122°23'0 0.0
2017-Dec-08 08:30N 47°39' W 122°23'0 0.0
2017-Dec-08 07:57N 47°39' W 122°23'0 0.0
2017-Dec-08 07:30N 47°39' W 122°23'0 0.0
2017-Dec-08 07:00N 47°39' W 122°23'0 0.0
2017-Dec-08 06:30N 47°39' W 122°23'0 0.0
2017-Dec-08 06:00N 47°39' W 122°23'0 0.0
2017-Dec-08 05:30N 47°39' W 122°23'0 0.0
2017-Dec-08 05:00N 47°39' W 122°23'0 0.0
2017-Dec-08 04:30N 47°39' W 122°23'0 0.0
2017-Dec-08 04:00N 47°39' W 122°23'0 0.0
2017-Dec-08 03:30N 47°39' W 122°23'0 0.0
2017-Dec-08 03:00N 47°39' W 122°23'0 0.0
2017-Dec-08 02:30N 47°39' W 122°23'0 0.0
2017-Dec-08 02:00N 47°39' W 122°23'0 0.0
2017-Dec-08 01:30N 47°39' W 122°23'0 0.0
2017-Dec-08 01:00N 47°39' W 122°23'0 0.0
2017-Dec-08 00:30N 47°39' W 122°23'0 0.0
2017-Dec-08 00:00N 47°39' W 122°23'0 0.0
2017-Dec-07 23:30N 47°39' W 122°23'0 0.0
2017-Dec-07 23:00N 47°39' W 122°23'0 0.0
2017-Dec-07 22:30N 47°39' W 122°23'0 0.0
2017-Dec-07 22:00N 47°39' W 122°23'0 0.0
2017-Dec-07 21:30N 47°39' W 122°23'0 0.0
2017-Dec-07 21:00N 47°39' W 122°23'0 0.0
2017-Dec-07 20:30N 47°39' W 122°23'0 0.0
2017-Dec-07 20:00N 47°39' W 122°23'0 0.0
2017-Dec-07 19:30N 47°39' W 122°23'0 0.0
2017-Dec-07 19:00N 47°39' W 122°23'0 0.0
2017-Dec-07 18:30N 47°39' W 122°23'0 0.0
2017-Dec-07 17:59N 47°39' W 122°23'0 0.0
2017-Dec-07 17:26N 47°39' W 122°23'0 0.0
2017-Dec-07 16:59N 47°39' W 122°23'0 0.0
2017-Dec-07 16:26N 47°39' W 122°23'0 0.0
2017-Dec-07 15:59N 47°39' W 122°23'0 0.0
2017-Dec-07 15:29N 47°39' W 122°23'0 0.0
2017-Dec-07 14:59N 47°39' W 122°23'0 0.0
2017-Dec-07 14:29N 47°39' W 122°23'0 0.0
2017-Dec-07 13:59N 47°39' W 122°23'0 0.0
2017-Dec-07 13:29N 47°39' W 122°23'0 0.0
2017-Dec-07 12:59N 47°39' W 122°23'0 0.0
2017-Dec-07 12:29N 47°39' W 122°23'0 0.0
2017-Dec-07 11:59N 47°39' W 122°23'0 0.0
2017-Dec-07 11:29N 47°39' W 122°23'0 0.0
2017-Dec-07 10:59N 47°39' W 122°23'0 0.0
2017-Dec-07 10:29N 47°39' W 122°23'0 0.0
2017-Dec-07 09:59N 47°39' W 122°23'0 0.0
2017-Dec-07 09:29N 47°39' W 122°23'0 0.0
2017-Dec-07 08:59N 47°39' W 122°23'0 0.0
2017-Dec-07 08:29N 47°39' W 122°23'0 0.0
2017-Dec-07 07:59N 47°39' W 122°23'0 0.0
2017-Dec-07 07:29N 47°39' W 122°23'0 0.0
2017-Dec-07 07:00N 47°39' W 122°23'0 0.0
2017-Dec-07 06:30N 47°39' W 122°23'0 0.0
2017-Dec-07 06:00N 47°39' W 122°23'0 0.0
2017-Dec-07 05:30N 47°39' W 122°23'0 0.0
2017-Dec-07 05:00N 47°39' W 122°23'0 0.0
2017-Dec-07 04:21N 47°39' W 122°23'0 0.0
2017-Dec-07 04:00N 47°39' W 122°23'0 0.0
2017-Dec-07 03:30N 47°39' W 122°23'0 0.0
2017-Dec-07 03:00N 47°39' W 122°23'0 0.0
2017-Dec-07 02:30N 47°39' W 122°23'0 0.0
2017-Dec-07 02:00N 47°39' W 122°23'0 0.0
2017-Dec-07 01:30N 47°39' W 122°23'0 0.0
2017-Dec-07 01:00N 47°39' W 122°23'0 0.0
2017-Dec-07 00:30N 47°39' W 122°23'0 0.0
2017-Dec-06 23:57N 47°39' W 122°23'0 0.0
2017-Dec-06 23:30N 47°39' W 122°23'0 0.0
2017-Dec-06 23:00N 47°39' W 122°23'0 0.0
2017-Dec-06 22:30N 47°39' W 122°23'0 0.0
2017-Dec-06 22:00N 47°39' W 122°23'0 0.0
2017-Dec-06 21:30N 47°39' W 122°23'0 0.0
2017-Dec-06 21:00N 47°39' W 122°23'  
2017-Dec-04 10:21N 47°39' W 122°19'0 0.0
2017-Dec-04 10:01N 47°39' W 122°19'0 0.0
2017-Dec-04 09:30N 47°39' W 122°19'0 0.0
2017-Dec-04 09:01N 47°39' W 122°19'0 0.0
2017-Dec-04 08:31N 47°39' W 122°19'0 0.0
2017-Dec-04 07:55N 47°39' W 122°19'0 0.0
2017-Dec-04 07:31N 47°39' W 122°19'1 0.1
2017-Dec-04 00:33N 47°39' W 122°20'0 5.7
2017-Dec-04 00:30N 47°39' W 122°20'2 1.9
2017-Dec-03 23:41N 47°39' W 122°18'1 3.8
2017-Dec-03 23:30N 47°39' W 122°19'0 0.1
2017-Dec-03 20:37N 47°39' W 122°19'0 0.0
2017-Dec-03 20:10N 47°39' W 122°19'0 0.0
2017-Dec-03 14:48N 47°39' W 122°19'0 0.0
2017-Dec-03 14:30N 47°39' W 122°19'0 0.0
2017-Dec-03 14:00N 47°39' W 122°19'0 0.0
2017-Dec-03 13:30N 47°39' W 122°19'0 0.0
2017-Dec-03 13:00N 47°39' W 122°19'0 0.0
2017-Dec-03 12:30N 47°39' W 122°19'0 0.0
2017-Dec-03 11:48N 47°39' W 122°19'0 0.0
2017-Dec-03 11:30N 47°39' W 122°19'0 0.0
2017-Dec-03 11:00N 47°39' W 122°19'0 0.0
2017-Dec-03 10:30N 47°39' W 122°19'0 0.0
2017-Dec-03 10:00N 47°39' W 122°19'0 0.0
2017-Dec-03 09:30N 47°39' W 122°19'0 0.0
2017-Dec-03 08:51N 47°39' W 122°19'0 0.0
2017-Dec-03 08:24N 47°39' W 122°19'0 0.0
2017-Dec-03 08:00N 47°39' W 122°19'0 0.0
2017-Dec-03 07:24N 47°39' W 122°19'0 0.0
2017-Dec-02 21:07N 47°39' W 122°19'0 0.0
2017-Dec-02 20:49N 47°39' W 122°19'0 0.0
2017-Dec-02 18:31N 47°39' W 122°19'0 0.0
2017-Dec-02 14:49N 47°39' W 122°19'0 0.0
2017-Dec-02 14:19N 47°39' W 122°19'0 0.0
2017-Dec-02 13:55N 47°39' W 122°19'1 0.1
2017-Dec-01 21:06N 47°39' W 122°20'1 6.7
2017-Dec-01 21:00N 47°39' W 122°21'1 2.6
2017-Dec-01 20:30N 47°39' W 122°23'  
Track history (hours):
 
Tides and Currents Weather Stations Pressure Air Temp Water Temp Dewpoint Dewpoint Depression Visibility Wind Speed Wind Dir Waves Ship Positions

Maximo

Owner: OBERTO, STEPHEN J, SEATTLE, WA. More information available from US FCC via Universal Licensing System and Coast Guard Vessel Documentation Center.

Last reported at 2017-Dec-11 05:46 UTC. Time now 2017-Dec-13 22:34 UTC.
Position N 47°17' W 122°28'.

Length 21 m.

Type: Pleasure craft. MMSI: 367315610.

Date/timePositionNaut miles runAvg speedWind from/ knotsBaromVisibWave heightAir tempDewpointWater temp
2017-Dec-11 05:46N 47°17' W 122°28'0 0.5
2017-Dec-11 05:30N 47°17' W 122°28'2 1.2
2017-Dec-11 03:38N 47°19' W 122°30'2 9.2
2017-Dec-11 03:27N 47°17' W 122°28'5 0.8
2017-Dec-10 20:50N 47°22' W 122°24'2 7.0
2017-Dec-10 20:30N 47°24' W 122°22'4 8.2
2017-Dec-10 20:00N 47°28' W 122°25'4 7.8
2017-Dec-10 19:30N 47°32' W 122°25'5 8.1
2017-Dec-10 18:51N 47°37' W 122°24'1 2.7
2017-Dec-10 18:29N 47°38' W 122°23'0 0.0
2017-Dec-10 17:56N 47°38' W 122°23'0 0.0
2017-Dec-10 17:29N 47°38' W 122°23'0 0.0
2017-Dec-10 16:59N 47°38' W 122°23'0 0.0
2017-Dec-10 16:21N 47°38' W 122°23'0 0.0
2017-Dec-10 15:53N 47°38' W 122°23'0 0.0
2017-Dec-10 15:26N 47°38' W 122°23'0 0.0
2017-Dec-10 14:59N 47°38' W 122°23'0 0.0
2017-Dec-10 14:29N 47°38' W 122°23'0 0.0
2017-Dec-10 13:59N 47°38' W 122°23'0 0.0
2017-Dec-10 13:29N 47°38' W 122°23'0 0.0
2017-Dec-10 12:59N 47°38' W 122°23'0 0.0
2017-Dec-10 12:30N 47°38' W 122°23'0 0.0
2017-Dec-10 11:59N 47°38' W 122°23'0 0.0
2017-Dec-10 11:29N 47°38' W 122°23'0 0.0
2017-Dec-10 10:56N 47°38' W 122°23'0 0.0
2017-Dec-10 10:27N 47°38' W 122°23'0 0.0
2017-Dec-10 09:59N 47°38' W 122°23'0 0.0
2017-Dec-10 09:26N 47°38' W 122°23'0 0.0
2017-Dec-10 08:59N 47°38' W 122°23'0 0.0
2017-Dec-10 08:29N 47°38' W 122°23'0 0.0
2017-Dec-10 07:59N 47°38' W 122°23'0 0.0
2017-Dec-10 07:30N 47°38' W 122°23'0 0.0
2017-Dec-10 06:59N 47°38' W 122°23'0 0.0
2017-Dec-10 06:29N 47°38' W 122°23'0 0.2
2017-Dec-10 05:59N 47°38' W 122°24'4 3.2
2017-Dec-10 04:44N 47°34' W 122°25'2 4.4
2017-Dec-10 04:23N 47°32' W 122°24'1 2.6
2017-Dec-10 04:00N 47°33' W 122°25'4 3.7
2017-Dec-10 02:53N 47°37' W 122°21'2 4.6
2017-Dec-10 02:29N 47°38' W 122°23'0 0.1
2017-Dec-10 01:56N 47°38' W 122°24'0 0.0
2017-Dec-10 01:29N 47°38' W 122°24'2 4.7
2017-Dec-10 01:00N 47°35' W 122°23'0 0.8
2017-Dec-10 00:31N 47°35' W 122°22'2 0.8
2017-Dec-09 22:09N 47°37' W 122°23'1 3.6
2017-Dec-09 22:00N 47°38' W 122°23'0 0.4
2017-Dec-09 21:13N 47°38' W 122°24'0 0.0
2017-Dec-09 20:43N 47°38' W 122°24'0 0.4
2017-Dec-09 20:30N 47°38' W 122°24'0 0.0
2017-Dec-09 19:48N 47°38' W 122°24'0 0.0
2017-Dec-09 19:28N 47°38' W 122°24'0 0.0
2017-Dec-09 18:54N 47°38' W 122°24'0 0.0
2017-Dec-09 18:30N 47°38' W 122°24'0 0.0
2017-Dec-09 18:00N 47°38' W 122°24'0 0.0
2017-Dec-09 17:30N 47°38' W 122°24'0 0.0
2017-Dec-09 16:48N 47°38' W 122°24'0 0.0
2017-Dec-09 16:30N 47°38' W 122°24'0 0.0
2017-Dec-09 16:00N 47°38' W 122°24'0 0.0
2017-Dec-09 15:24N 47°38' W 122°24'0 0.0
2017-Dec-09 15:00N 47°38' W 122°24'0 0.0
2017-Dec-09 14:24N 47°38' W 122°24'0 0.0
2017-Dec-09 13:54N 47°38' W 122°24'0 0.0
2017-Dec-09 13:27N 47°38' W 122°24'0 0.0
2017-Dec-09 12:54N 47°38' W 122°24'0 0.0
2017-Dec-09 12:30N 47°38' W 122°24'0 0.0
2017-Dec-09 11:30N 47°38' W 122°24'0 0.0
2017-Dec-09 11:00N 47°38' W 122°24'0 0.0
2017-Dec-09 10:30N 47°38' W 122°24'0 0.0
2017-Dec-09 09:57N 47°38' W 122°24'0 0.0
2017-Dec-09 09:30N 47°38' W 122°24'0 0.0
2017-Dec-09 08:57N 47°38' W 122°24'0 0.0
2017-Dec-09 08:19N 47°38' W 122°24'0 0.0
2017-Dec-09 07:54N 47°38' W 122°24'0 0.0
2017-Dec-09 07:30N 47°38' W 122°24'0 0.0
2017-Dec-09 07:00N 47°38' W 122°24'0 0.2
2017-Dec-09 06:29N 47°38' W 122°24'0 0.3
2017-Dec-09 06:00N 47°38' W 122°23'1 2.4
2017-Dec-09 05:26N 47°37' W 122°22'4 8.4
2017-Dec-09 04:59N 47°35' W 122°27'4 3.6
2017-Dec-09 03:54N 47°33' W 122°32'4 8.0
2017-Dec-09 03:26N 47°35' W 122°27'3 7.7
2017-Dec-09 03:00N 47°37' W 122°23'0 0.6
2017-Dec-09 02:27N 47°38' W 122°24'0 0.0
2017-Dec-09 02:00N 47°38' W 122°24'0 0.0
2017-Dec-09 01:27N 47°38' W 122°24'0 0.2
2017-Dec-09 01:00N 47°38' W 122°24'0 0.0
2017-Dec-09 00:27N 47°38' W 122°24'0 0.0
2017-Dec-08 23:57N 47°38' W 122°24'0 0.0
2017-Dec-08 23:27N 47°38' W 122°24'0 0.0
2017-Dec-08 22:57N 47°38' W 122°24'0 0.0
2017-Dec-08 22:30N 47°38' W 122°24'0 0.0
2017-Dec-08 22:01N 47°38' W 122°24'0 0.0
2017-Dec-08 21:27N 47°38' W 122°24'0 0.0
2017-Dec-08 20:58N 47°38' W 122°24'0 1.0
2017-Dec-08 20:30N 47°38' W 122°24'3 6.1
2017-Dec-08 20:00N 47°41' W 122°25'2 3.7
2017-Dec-08 19:30N 47°40' W 122°23'0 0.6
2017-Dec-08 19:00N 47°39' W 122°23'0 0.0
2017-Dec-08 18:30N 47°39' W 122°23'0 0.0
2017-Dec-08 18:00N 47°39' W 122°23'0 0.0
2017-Dec-08 17:30N 47°39' W 122°23'0 0.0
2017-Dec-08 16:54N 47°39' W 122°23'0 0.0
2017-Dec-08 16:30N 47°39' W 122°23'0 0.0
2017-Dec-08 16:00N 47°39' W 122°23'0 0.0
2017-Dec-08 15:30N 47°39' W 122°23'0 0.0
2017-Dec-08 15:00N 47°39' W 122°23'0 0.0
2017-Dec-08 14:30N 47°39' W 122°23'0 0.0
2017-Dec-08 14:00N 47°39' W 122°23'0 0.0
2017-Dec-08 13:30N 47°39' W 122°23'0 0.0
2017-Dec-08 13:00N 47°39' W 122°23'0 0.0
2017-Dec-08 12:30N 47°39' W 122°23'0 0.0
2017-Dec-08 12:00N 47°39' W 122°23'0 0.0
2017-Dec-08 11:30N 47°39' W 122°23'0 0.0
2017-Dec-08 11:00N 47°39' W 122°23'0 0.0
2017-Dec-08 10:30N 47°39' W 122°23'0 0.0
2017-Dec-08 10:00N 47°39' W 122°23'0 0.0
2017-Dec-08 09:30N 47°39' W 122°23'0 0.0
2017-Dec-08 09:00N 47°39' W 122°23'0 0.0
2017-Dec-08 08:30N 47°39' W 122°23'0 0.0
2017-Dec-08 07:57N 47°39' W 122°23'0 0.0
2017-Dec-08 07:30N 47°39' W 122°23'0 0.0
2017-Dec-08 07:00N 47°39' W 122°23'0 0.0
2017-Dec-08 06:30N 47°39' W 122°23'0 0.0
2017-Dec-08 06:00N 47°39' W 122°23'0 0.0
2017-Dec-08 05:30N 47°39' W 122°23'0 0.0
2017-Dec-08 05:00N 47°39' W 122°23'0 0.0
2017-Dec-08 04:30N 47°39' W 122°23'0 0.0
2017-Dec-08 04:00N 47°39' W 122°23'0 0.0
2017-Dec-08 03:30N 47°39' W 122°23'0 0.0
2017-Dec-08 03:00N 47°39' W 122°23'0 0.0
2017-Dec-08 02:30N 47°39' W 122°23'0 0.0
2017-Dec-08 02:00N 47°39' W 122°23'0 0.0
2017-Dec-08 01:30N 47°39' W 122°23'0 0.0
2017-Dec-08 01:00N 47°39' W 122°23'0 0.0
2017-Dec-08 00:30N 47°39' W 122°23'0 0.0
2017-Dec-08 00:00N 47°39' W 122°23'0 0.0
2017-Dec-07 23:30N 47°39' W 122°23'0 0.0
2017-Dec-07 23:00N 47°39' W 122°23'0 0.0
2017-Dec-07 22:30N 47°39' W 122°23'0 0.0
2017-Dec-07 22:00N 47°39' W 122°23'0 0.0
2017-Dec-07 21:30N 47°39' W 122°23'0 0.0
2017-Dec-07 21:00N 47°39' W 122°23'0 0.0
2017-Dec-07 20:30N 47°39' W 122°23'0 0.0
2017-Dec-07 20:00N 47°39' W 122°23'0 0.0
2017-Dec-07 19:30N 47°39' W 122°23'0 0.0
2017-Dec-07 19:00N 47°39' W 122°23'0 0.0
2017-Dec-07 18:30N 47°39' W 122°23'0 0.0
2017-Dec-07 17:59N 47°39' W 122°23'0 0.0
2017-Dec-07 17:26N 47°39' W 122°23'0 0.0
2017-Dec-07 16:59N 47°39' W 122°23'0 0.0
2017-Dec-07 16:26N 47°39' W 122°23'0 0.0
2017-Dec-07 15:59N 47°39' W 122°23'0 0.0
2017-Dec-07 15:29N 47°39' W 122°23'0 0.0
2017-Dec-07 14:59N 47°39' W 122°23'0 0.0
2017-Dec-07 14:29N 47°39' W 122°23'0 0.0
2017-Dec-07 13:59N 47°39' W 122°23'0 0.0
2017-Dec-07 13:29N 47°39' W 122°23'0 0.0
2017-Dec-07 12:59N 47°39' W 122°23'0 0.0
2017-Dec-07 12:29N 47°39' W 122°23'0 0.0
2017-Dec-07 11:59N 47°39' W 122°23'0 0.0
2017-Dec-07 11:29N 47°39' W 122°23'0 0.0
2017-Dec-07 10:59N 47°39' W 122°23'0 0.0
2017-Dec-07 10:29N 47°39' W 122°23'0 0.0
2017-Dec-07 09:59N 47°39' W 122°23'0 0.0
2017-Dec-07 09:29N 47°39' W 122°23'0 0.0
2017-Dec-07 08:59N 47°39' W 122°23'0 0.0
2017-Dec-07 08:29N 47°39' W 122°23'0 0.0
2017-Dec-07 07:59N 47°39' W 122°23'0 0.0
2017-Dec-07 07:29N 47°39' W 122°23'0 0.0
2017-Dec-07 07:00N 47°39' W 122°23'0 0.0
2017-Dec-07 06:30N 47°39' W 122°23'0 0.0
2017-Dec-07 06:00N 47°39' W 122°23'0 0.0
2017-Dec-07 05:30N 47°39' W 122°23'0 0.0
2017-Dec-07 05:00N 47°39' W 122°23'0 0.0
2017-Dec-07 04:21N 47°39' W 122°23'0 0.0
2017-Dec-07 04:00N 47°39' W 122°23'0 0.0
2017-Dec-07 03:30N 47°39' W 122°23'0 0.0
2017-Dec-07 03:00N 47°39' W 122°23'0 0.0
2017-Dec-07 02:30N 47°39' W 122°23'0 0.0
2017-Dec-07 02:00N 47°39' W 122°23'0 0.0
2017-Dec-07 01:30N 47°39' W 122°23'0 0.0
2017-Dec-07 01:00N 47°39' W 122°23'0 0.0
2017-Dec-07 00:30N 47°39' W 122°23'0 0.0
2017-Dec-06 23:57N 47°39' W 122°23'0 0.0
2017-Dec-06 23:30N 47°39' W 122°23'0 0.0
2017-Dec-06 23:00N 47°39' W 122°23'0 0.0
2017-Dec-06 22:30N 47°39' W 122°23'0 0.0
2017-Dec-06 22:00N 47°39' W 122°23'0 0.0
2017-Dec-06 21:30N 47°39' W 122°23'0 0.0
2017-Dec-06 21:00N 47°39' W 122°23'  
2017-Dec-04 10:21N 47°39' W 122°19'0 0.0
2017-Dec-04 10:01N 47°39' W 122°19'0 0.0
2017-Dec-04 09:30N 47°39' W 122°19'0 0.0
2017-Dec-04 09:01N 47°39' W 122°19'0 0.0
2017-Dec-04 08:31N 47°39' W 122°19'0 0.0
2017-Dec-04 07:55N 47°39' W 122°19'0 0.0
2017-Dec-04 07:31N 47°39' W 122°19'1 0.1
2017-Dec-04 00:33N 47°39' W 122°20'0 5.7
2017-Dec-04 00:30N 47°39' W 122°20'2 1.9
2017-Dec-03 23:41N 47°39' W 122°18'1 3.8
2017-Dec-03 23:30N 47°39' W 122°19'0 0.1
2017-Dec-03 20:37N 47°39' W 122°19'0 0.0
2017-Dec-03 20:10N 47°39' W 122°19'0 0.0
2017-Dec-03 14:48N 47°39' W 122°19'0 0.0
2017-Dec-03 14:30N 47°39' W 122°19'0 0.0
2017-Dec-03 14:00N 47°39' W 122°19'0 0.0
2017-Dec-03 13:30N 47°39' W 122°19'0 0.0
2017-Dec-03 13:00N 47°39' W 122°19'0 0.0
2017-Dec-03 12:30N 47°39' W 122°19'0 0.0
2017-Dec-03 11:48N 47°39' W 122°19'0 0.0
2017-Dec-03 11:30N 47°39' W 122°19'0 0.0
2017-Dec-03 11:00N 47°39' W 122°19'0 0.0
2017-Dec-03 10:30N 47°39' W 122°19'0 0.0
2017-Dec-03 10:00N 47°39' W 122°19'0 0.0
2017-Dec-03 09:30N 47°39' W 122°19'0 0.0
2017-Dec-03 08:51N 47°39' W 122°19'0 0.0
2017-Dec-03 08:24N 47°39' W 122°19'0 0.0
2017-Dec-03 08:00N 47°39' W 122°19'0 0.0
2017-Dec-03 07:24N 47°39' W 122°19'0 0.0
2017-Dec-02 21:07N 47°39' W 122°19'0 0.0
2017-Dec-02 20:49N 47°39' W 122°19'0 0.0
2017-Dec-02 18:31N 47°39' W 122°19'0 0.0
2017-Dec-02 14:49N 47°39' W 122°19'0 0.0
2017-Dec-02 14:19N 47°39' W 122°19'0 0.0
2017-Dec-02 13:55N 47°39' W 122°19'1 0.1
2017-Dec-01 21:06N 47°39' W 122°20'1 6.7
2017-Dec-01 21:00N 47°39' W 122°21'1 2.6
2017-Dec-01 20:30N 47°39' W 122°23'  

Dump ship's entire track history